Tiempo atmosférico en la estación meteorológica de Guadalcanal, Sevilla (745 m.)



Fecha
DESCASC
Temp. máxima en grados centígrados (hora)
DESCASC
Temp. mínima en grados centígrados (hora)
DESCASC
Temp. media en grados centígrados
DESCASC
Racha de viento máxima en m/sg (hora)
DESCASC
Velocidad máxima media en intervalos de 10 minutos(hora)
DESCASC
Precipitaciones diarias en mm
DESCASC
Precipitaciones de 00:00 a 06:00 en mm
DESCASC
Precipitaciones de 06:00 a 12:00 en mm
DESCASC
Precipitaciones de 12:00 a 18:00 en mm
DESCASC
Precipitaciones de 18:00 a 24:00 en mm
DESCASC
22-11-2020 16.9 (13:50) 8 (05:50) 12.4 5.56 (13:30) 2.78 (11:30) 0 0 0 0 0
21-11-2020 18.1 (15:00) 8.6 (05:30) 13.4 7.78 (11:30) 5 (03:50) 0 0 0 0 0
20-11-2020 19.6 (14:10) 11.8 (06:30) 15.7 8.89 (17:10) 5.56 (21:00) 0 0 0 0 0
19-11-2020 22.3 (14:10) 14.2 (00:00) 18.2 9.44 (14:30) 4.17 (14:00) 0 0 0 0 0
18-11-2020 23.9 (15:30) 12.2 (00:00) 18 4.44 (21:40) 3.61 (22:00) 0 0 0 0 0
17-11-2020 20.7 (14:10) 10.7 (00:00) 15.7 6.39 (14:40) 3.06 (14:00) 0.4 0.2 0.2 0 0
16-11-2020 20.4 (16:40) 11.9 (00:00) 16.1 5.83 (09:30) 3.89 (09:30) 0 0 0 0 0
15-11-2020 19.8 (14:40) 13.4 (00:00) 16.6 8.61 (14:30) 5.28 (13:10) 0 0 0 0 0
14-11-2020 15.2 (17:00) 12.4 (00:00) 13.8 8.61 (08:50) 5.28 (08:10) 7.8 7 0.6 0.2 0
13-11-2020 16.5 (13:00) 8.7 (00:00) 12.6 7.5 (15:50) 5 (15:00) 0 0 0 0 0
12-11-2020 18.5 (13:50) 9.5 (00:00) 14 7.22 (15:30) 4.17 (13:10) 0 0 0 0 0
11-11-2020 18 (14:20) 8.9 (00:00) 13.4 7.78 (13:40) 4.44 (13:40) 0 0 0 0 0
10-11-2020 18.3 (15:00) 8.9 (00:00) 13.6 5.28 (13:20) 3.06 (10:20) 0.2 0 0.2 0 0
09-11-2020 16.8 (16:30) 10.2 (00:00) 13.5 7.22 (04:00) 4.44 (00:30) 28.2 24.8 3.4 0 0
08-11-2020 16.4 (15:50) 10.7 (00:00) 13.5 9.44 (12:00) 5.56 (17:10) 0 0 0 0 0
07-11-2020 15.7 (15:10) 9.7 (00:00) 12.7 17.22 (00:20) 9.17 (00:30) 10.2 10.2 0 0 0
06-11-2020 20.2 (14:20) 13.4 (00:00) 16.8 16.39 (20:40) 8.06 (21:00) 0 0 0 0 0
05-11-2020 15.4 (16:10) 10.3 (00:00) 12.8 12.78 (07:30) 6.67 (07:40) 39 21.6 16.6 0.8 0
04-11-2020 14 (15:10) 9.6 (00:00) 11.8 8.61 (23:10) 3.89 (23:10) 2.2 0.2 0 2 0
03-11-2020 17.1 (11:40) 13.2 (00:00) 15.2 8.61 (01:10) 6.39 (01:10) 1.8 0 0 1.8 0
02-11-2020 24.6 (14:40) 13.4 (00:00) 19 8.33 (21:20) 6.11 (19:40) 0 0 0 0 0
01-11-2020 22.7 (14:00) 13.8 (00:00) 18.3 7.78 (01:00) 5.28 (01:00) 0 0 0 0 0
31-10-2020 24.5 (15:40) 11.9 (00:00) 18.2 7.22 (20:40) 4.72 (20:50) 0 0 0 0 0
30-10-2020 23.9 (14:30) 13.5 (00:00) 18.7 7.5 (12:40) 4.17 (12:20) 0 0 0 0 0
29-10-2020 24.1 (15:40) 11.7 (00:00) 17.9 6.67 (10:20) 5 (04:50) 0 0 0 0 0
28-10-2020 19.3 (17:00) 7.7 (00:00) 13.5 8.06 (20:50) 5.28 (21:20) 0 0 0 0 0
27-10-2020 16.2 (15:30) 6 (00:00) 11.1 7.22 (01:20) 4.17 (01:30) 0 0 0 0 0
26-10-2020 13.3 (15:00) 6.8 (00:00) 10.1 8.61 (13:00) 4.44 (16:30) 0.2 0.2 0 0 0
25-10-2020 14.3 (16:20) 6.9 (00:00) 10.6 11.39 (17:20) 7.5 (18:30) 13.2 0 0 0 13.2

Gráficas

Temp. máximas Temp. mínimas Temp. medias Precipitaciones Rachas de viento máximas Velocidades máximas media en intervalos de 10 minutos

Datos horarios

Fecha y hora oficial Temperatura (ºC) Velocidad del viento (km/h) Dirección del viento Racha (km/h) Dirección de racha Precipitación (mm) Presión (hPa) Tendencia (hPa) Humedad (%)
2020-11-23 23:00:00 7.2 0 Calma 4 Sudeste 0 -- -- 80
2020-11-23 22:00:00 6.9 0 Calma 2 Sur 0 -- -- 81
2020-11-23 21:00:00 7.2 0 Calma 4 Sur 0 -- -- 76
2020-11-23 20:00:00 7.1 0 Calma 4 Sudoeste 0 -- -- 81
2020-11-23 19:00:00 8.5 0 Calma 7 Sudoeste 0 -- -- 78
2020-11-23 18:00:00 12.3 4 Sudoeste 12 Sudoeste 0 -- -- 63
2020-11-23 17:00:00 15.2 5 Sudoeste 13 Sudoeste 0 -- -- 49
2020-11-23 16:00:00 15.4 6 Sudoeste 13 Sudoeste 0 -- -- 50
2020-11-23 15:00:00 15.5 8 Sudoeste 15 Sur 0 -- -- 47
2020-11-23 14:00:00 15.9 5 Sur 13 Sur 0 -- -- 52
2020-11-23 13:00:00 14 4 Sudoeste 12 Sudoeste 0 -- -- 61
2020-11-23 12:00:00 12.4 6 Sudoeste 12 Oeste 0 -- -- 66
2020-11-23 11:00:00 10.7 5 Sudoeste 14 Sudeste 0 -- -- 72
2020-11-23 10:00:00 9.7 6 Sur 12 Sur 0 -- -- 73
2020-11-23 09:00:00 7.5 0 Calma 5 Nordeste 0 -- -- 81
2020-11-23 08:00:00 6.9 0 Calma 8 Este 0 -- -- 83
2020-11-23 07:00:00 7 6 Nordeste 9 Nordeste 0 -- -- 85
2020-11-23 06:00:00 7.2 7 Nordeste 10 Nordeste 0 -- -- 88
2020-11-23 05:00:00 7.9 8 Nordeste 10 Norte 0 -- -- 84
2020-11-23 04:00:00 8.5 8 Nordeste 16 Nordeste 0 -- -- 81
2020-11-23 03:00:00 9.2 11 Nordeste 15 Nordeste 0 -- -- 77
2020-11-23 02:00:00 9 10 Nordeste 16 Nordeste 0 -- -- 77
2020-11-23 01:00:00 9 8 Nordeste 10 Nordeste 0 -- -- 74
2020-11-23 00:00:00 8.1 6 Nordeste 8 Nordeste 0 -- -- 78
2020-11-22 23:00:00 9.2 4 Nordeste 13 Este 0 -- -- 73
2020-11-22 22:00:00 10.3 5 Este 10 Este 0 -- -- 67
2020-11-22 21:00:00 10.2 4 Este 6 Nordeste 0 -- -- 73
2020-11-22 20:00:00 9.3 3 Este 5 Este 0 -- -- 80
2020-11-22 19:00:00 11.2 4 Este 6 Este 0 -- -- 71
2020-11-22 18:00:00 14.3 4 Este 12 Este 0 -- -- 59
2020-11-22 17:00:00 16.6 4 Sudeste 13 Sudeste 0 -- -- 49
2020-11-22 16:00:00 16.3 5 Sudeste 19 Sudeste 0 -- -- 44
2020-11-22 15:00:00 16.5 7 Este 17 Este 0 -- -- 44
2020-11-22 14:00:00 16.9 7 Sudeste 20 Este 0 -- -- 49
2020-11-22 13:00:00 15.2 9 Este 18 Este 0 -- -- 56
2020-11-22 12:00:00 13.3 7 Este 19 Este 0 -- -- 69
2020-11-22 11:00:00 11.8 8 Este 16 Este 0 -- -- 78
2020-11-22 10:00:00 10.2 8 Este 17 Este 0 -- -- 85
2020-11-22 09:00:00 9 6 Este 16 Este 0 -- -- 85
2020-11-22 08:00:00 8.2 6 Este 15 Este 0 -- -- 90
2020-11-22 07:00:00 8.1 5 Este 13 Sur 0 -- -- 92
2020-11-22 06:00:00 8 3 Sudeste 15 Sudeste 0 -- -- 95
2020-11-22 05:00:00 8.7 5 Sudeste 16 Sudeste 0 -- -- 91
2020-11-22 04:00:00 8.8 6 Sudeste 15 Sur 0 -- -- 94
2020-11-22 03:00:00 9.3 7 Sudeste 15 Sudeste 0 -- -- 92
2020-11-22 02:00:00 10 9 Sudeste 20 Sudeste 0 -- -- 86
2020-11-22 01:00:00 9.5 4 Sudeste 12 Sur 0 -- -- 85
2020-11-22 00:00:00 9.7 3 Sur 12 Sudeste 0 -- -- 86
2020-11-21 23:00:00 11.1 10 Sur 18 Sur 0 -- -- 79
2020-11-21 22:00:00 11.4 13 Sur 23 Sur 0 -- -- 76
2020-11-21 21:00:00 11.1 6 Sudeste 15 Sudeste 0 -- -- 79
2020-11-21 20:00:00 10.9 2 Sur 9 Sudeste 0 -- -- 87
2020-11-21 19:00:00 11.5 0 Calma 6 Sudeste 0 -- -- 86
2020-11-21 18:00:00 14.5 6 Sur 17 Sudeste 0 -- -- 72
2020-11-21 17:00:00 16.8 9 Sur 18 Sur 0 -- -- 64
2020-11-21 16:00:00 17.1 11 Sur 18 Sur 0 -- -- 62
2020-11-21 15:00:00 18.1 9 Sur 19 Sur 0 -- -- 58
2020-11-21 14:00:00 17.5 12 Sur 20 Oeste 0 -- -- 62
2020-11-21 13:00:00 17.1 12 Sur 24 Sur 0 -- -- 64
2020-11-21 12:00:00 15.6 16 Sur 28 Sur 0 -- -- 67
2020-11-21 11:00:00 14 13 Sur 25 Sur 0 -- -- 73
2020-11-21 10:00:00 12.4 12 Sur 22 Este 0 -- -- 77
2020-11-21 09:00:00 11 9 Sudeste 21 Este 0 -- -- 81
2020-11-21 08:00:00 10.5 9 Este 24 Este 0 -- -- 55
2020-11-21 07:00:00 9.8 14 Nordeste 21 Nordeste 0 -- -- 63
2020-11-21 06:00:00 9.7 11 Nordeste 17 Nordeste 0 -- -- 48
2020-11-21 05:00:00 9.2 11 Nordeste 23 Nordeste 0 -- -- 50
2020-11-21 04:00:00 11.3 16 Nordeste 26 Nordeste 0 -- -- 41
2020-11-21 03:00:00 10.9 12 Nordeste 17 Nordeste 0 -- -- 42
2020-11-21 02:00:00 10.8 9 Nordeste 22 Nordeste 0 -- -- 42
2020-11-21 01:00:00 12.5 17 Nordeste 24 Nordeste 0 -- -- 36
2020-11-21 00:00:00 12.7 13 Nordeste 18 Nordeste 0 -- -- 35
2020-11-20 23:00:00 12.9 12 Nordeste 28 Nordeste 0 -- -- 35
2020-11-20 22:00:00 13.9 19 Nordeste 30 Nordeste 0 -- -- 33
2020-11-20 21:00:00 14.3 20 Nordeste 30 Nordeste 0 -- -- 32
2020-11-20 20:00:00 13.5 14 Nordeste 25 Nordeste 0 -- -- 37
2020-11-20 19:00:00 14.6 16 Nordeste 25 Nordeste 0 -- -- 35
2020-11-20 18:00:00 15.9 14 Nordeste 32 Nordeste 0 -- -- 35
2020-11-20 17:00:00 18.1 18 Nordeste 31 Nordeste 0 -- -- 32
2020-11-20 16:00:00 19 17 Nordeste 30 Nordeste 0 -- -- 37
2020-11-20 15:00:00 19.5 13 Nordeste 24 Este 0 -- -- 42
2020-11-20 14:00:00 19.3 14 Nordeste 24 Nordeste 0 -- -- 43
2020-11-20 13:00:00 17.9 13 Nordeste 23 Nordeste 0 -- -- 54
2020-11-20 12:00:00 16.4 12 Nordeste 24 Norte 0 -- -- 67
2020-11-20 11:00:00 14.1 14 Nordeste 23 Nordeste 0 -- -- 75
2020-11-20 10:00:00 12.7 15 Nordeste 24 Nordeste 0 -- -- 76
2020-11-20 09:00:00 11.9 12 Nordeste 20 Norte 0 -- -- 79
2020-11-20 08:00:00 12.4 12 Nordeste 19 Nordeste 0 -- -- 75
2020-11-20 07:00:00 11.8 12 Nordeste 17 Norte 0 -- -- 79
2020-11-20 06:00:00 12.1 12 Norte 21 Norte 0 -- -- 78
2020-11-20 05:00:00 13 14 Nordeste 24 Nordeste 0 -- -- 73
2020-11-20 04:00:00 13.7 15 Nordeste 21 Nordeste 0 -- -- 70
2020-11-20 03:00:00 13.5 13 Nordeste 22 Nordeste 0 -- -- 71
2020-11-20 02:00:00 13.7 13 Nordeste 22 Nordeste 0 -- -- 73
2020-11-20 01:00:00 14.2 12 Nordeste 21 Nordeste 0 -- -- 75
2020-11-20 00:00:00 14.7 13 Nordeste 23 Norte 0 -- -- 74
2020-11-19 23:00:00 15.1 12 Nordeste 23 Nordeste 0 -- -- 73
2020-11-19 22:00:00 15.2 10 Nordeste 23 Nordeste 0 -- -- 72
2020-11-19 21:00:00 15.9 12 Norte 24 Nordeste 0 -- -- 68
2020-11-19 20:00:00 16.6 11 Norte 22 Nordeste 0 -- -- 64
2020-11-19 19:00:00 17.1 9 Norte 17 Nordeste 0 -- -- 56
2020-11-19 18:00:00 18.6 10 Nordeste 18 Nordeste 0 -- -- 50
2020-11-19 17:00:00 21 10 Nordeste 33 Nordeste 0 -- -- 43
2020-11-19 16:00:00 21.6 8 Nordeste 26 Este 0 -- -- 46
2020-11-19 15:00:00 21.8 12 Nordeste 34 Nordeste 0 -- -- 45
2020-11-19 14:00:00 22.1 15 Nordeste 26 Nordeste 0 -- -- 39
2020-11-19 13:00:00 20.8 10 Nordeste 19 Norte 0 -- -- 44
2020-11-19 12:00:00 18.8 14 Norte 23 Norte 0 -- -- 55
2020-11-19 11:00:00 17.9 11 Nordeste 18 Nordeste 0 -- -- 54
2020-11-19 10:00:00 16.1 13 Nordeste 20 Nordeste 0 -- -- 63
2020-11-19 09:00:00 15.2 10 Nordeste 18 Nordeste 0 -- -- 61
2020-11-19 08:00:00 14.6 10 Nordeste 15 Nordeste 0 -- -- 65
2020-11-19 07:00:00 14.8 11 Nordeste 14 Norte 0 -- -- 65
2020-11-19 06:00:00 15 11 Nordeste 20 Nordeste 0 -- -- 66
2020-11-19 05:00:00 14.9 11 Nordeste 16 Nordeste 0 -- -- 68
2020-11-19 04:00:00 14.8 11 Nordeste 19 Nordeste 0 -- -- 70
2020-11-19 03:00:00 15.1 12 Nordeste 18 Nordeste 0 -- -- 70
2020-11-19 02:00:00 15.5 11 Nordeste 18 Nordeste 0 -- -- 69
2020-11-19 01:00:00 15.3 12 Nordeste 18 Nordeste 0 -- -- 71
2020-11-19 00:00:00 15.9 12 Nordeste 16 Nordeste 0 -- -- 69
2020-11-18 23:00:00 16.4 11 Nordeste 15 Nordeste 0 -- -- 72
2020-11-18 22:00:00 16.6 13 Nordeste 16 Norte 0 -- -- 74
2020-11-18 21:00:00 17 9 Nordeste 12 Nordeste 0 -- -- 59
2020-11-18 20:00:00 17.8 8 Nordeste 9 Nordeste 0 -- -- 50
2020-11-18 19:00:00 17.5 7 Norte 8 Norte 0 -- -- 64
2020-11-18 18:00:00 18.7 6 Norte 8 Norte 0 -- -- 61
2020-11-18 17:00:00 23.4 4 Este 9 Nordeste 0 -- -- 48
2020-11-18 16:00:00 23.4 6 Nordeste 9 Nordeste 0 -- -- 50
2020-11-18 15:00:00 23.4 5 Sudoeste 10 Sudoeste 0 -- -- 48
2020-11-18 14:00:00 23.3 4 Sudoeste 9 Sudoeste 0 -- -- 45
2020-11-18 13:00:00 22.3 6 Sudoeste 9 Sudoeste 0 -- -- 53
2020-11-18 12:00:00 21 4 Sudoeste 8 Oeste 0 -- -- 46
2020-11-18 11:00:00 19.9 0 Calma 4 Sudeste 0 -- -- 46
2020-11-18 10:00:00 18.8 0 Calma 9 Nordeste 0 -- -- 47
2020-11-18 09:00:00 15.1 8 Nordeste 10 Este 0 -- -- 59
2020-11-18 08:00:00 12.9 6 Nordeste 9 Nordeste 0 -- -- 63
2020-11-18 07:00:00 12.6 7 Nordeste 10 Nordeste 0 -- -- 68
2020-11-18 06:00:00 12.8 9 Nordeste 10 Nordeste 0 -- -- 66
2020-11-18 05:00:00 13.1 5 Norte 8 Norte 0 -- -- 61
2020-11-18 04:00:00 13.2 4 Norte 6 Nordeste 0 -- -- 65
2020-11-18 03:00:00 13.9 4 Noroeste 6 Noroeste 0 -- -- 65
2020-11-18 02:00:00 13.6 3 Norte 5 Norte 0 -- -- 69
2020-11-18 01:00:00 12.3 0 Calma 5 Nordeste 0 -- -- 76
2020-11-18 00:00:00 13.3 2 Noroeste 5 Nordeste 0 -- -- 84
2020-11-17 23:00:00 12.9 0 Calma 3 Sudeste 0 -- -- 97
2020-11-17 22:00:00 12.6 0 Calma 2 Oeste 0 -- -- 99
2020-11-17 21:00:00 13.8 0 Calma 3 Noroeste 0 -- -- 97
2020-11-17 20:00:00 14.5 3 Noroeste 6 Noroeste 0 -- -- 96
2020-11-17 19:00:00 14.7 0 Calma 7 Sudoeste 0 -- -- 94
2020-11-17 18:00:00 17.6 4 Sudoeste 14 Sudoeste 0 -- -- 82
2020-11-17 17:00:00 19.7 9 Sudoeste 17 Sudoeste 0 -- -- 71
2020-11-17 16:00:00 20.2 10 Sudoeste 18 Sudoeste 0 -- -- 70
2020-11-17 15:00:00 20.3 11 Sudoeste 23 Oeste 0 -- -- 73
2020-11-17 14:00:00 20.2 11 Sudoeste 17 Oeste 0 -- -- 72
2020-11-17 13:00:00 19.2 9 Sudoeste 16 Sur 0 -- -- 75
2020-11-17 12:00:00 18 8 Sudoeste 12 Oeste 0 -- -- 82
2020-11-17 11:00:00 17 6 Sudoeste 10 Sudoeste 0 -- -- 86
2020-11-17 10:00:00 15.2 4 Sudoeste 6 Sudoeste 0.2 -- -- 94
2020-11-17 09:00:00 12 0 Calma 7 Norte 0 -- -- 100
2020-11-17 08:00:00 10.7 0 Calma 3 Sudoeste 0 -- -- 100
2020-11-17 07:00:00 11.3 0 Calma 7 Nordeste 0 -- -- 100
2020-11-17 06:00:00 12 5 Nordeste 8 Nordeste 0.2 -- -- 100
2020-11-17 05:00:00 11.9 3 Oeste 4 Oeste 0 -- -- 100
2020-11-17 04:00:00 11.6 0 Calma 6 Oeste 0 -- -- 100
2020-11-17 03:00:00 11.1 0 Calma 2 Oeste 0 -- -- 100
2020-11-17 02:00:00 12 0 Calma 5 Oeste 0 -- -- 100
2020-11-17 01:00:00 11.5 0 Calma 6 Nordeste 0 -- -- 98
2020-11-17 00:00:00 12.6 3 Nordeste 9 Nordeste 0 -- -- 99
2020-11-16 23:00:00 12.8 7 Nordeste 10 Norte 0 -- -- 99
2020-11-16 22:00:00 13.4 9 Nordeste 13 Norte 0 -- -- 97
2020-11-16 21:00:00 14.3 9 Nordeste 13 Norte 0 -- -- 94
2020-11-16 20:00:00 14.5 7 Norte 9 Norte 0 -- -- 91
2020-11-16 19:00:00 15.2 7 Norte 14 Norte 0 -- -- 89
2020-11-16 18:00:00 16.3 9 Norte 15 Norte 0 -- -- 85
2020-11-16 17:00:00 18.9 9 Norte 17 Oeste 0 -- -- 76
2020-11-16 16:00:00 19.9 8 Oeste 17 Oeste 0 -- -- 66
2020-11-16 15:00:00 19.8 7 Sudoeste 14 Sudoeste 0 -- -- 70
2020-11-16 14:00:00 19.5 5 Sudoeste 12 Sudoeste 0 -- -- 68
2020-11-16 13:00:00 18.7 6 Sudoeste 11 Sudoeste 0 -- -- 77
2020-11-16 12:00:00 17.2 4 Norte 12 Norte 0 -- -- 79
2020-11-16 11:00:00 16 5 Norte 14 Norte 0 -- -- 86
2020-11-16 10:00:00 14.8 8 Nordeste 21 Norte 0 -- -- 94
2020-11-16 09:00:00 14 10 Norte 17 Norte 0 -- -- 99
2020-11-16 08:00:00 12.8 2 Norte 14 Norte 0 -- -- 98
2020-11-16 07:00:00 12.1 3 Noroeste 8 Noroeste 0 -- -- 99
2020-11-16 06:00:00 12.1 3 Nordeste 8 Norte 0 -- -- 100
2020-11-16 05:00:00 12.7 2 Nordeste 9 Nordeste 0 -- -- 100
2020-11-16 04:00:00 13.1 3 Norte 8 Norte 0 -- -- 96
2020-11-16 03:00:00 13.8 4 Norte 17 Noroeste 0 -- -- 96
2020-11-16 02:00:00 14.5 8 Noroeste 14 Noroeste 0 -- -- 95
2020-11-16 01:00:00 14.7 6 Oeste 15 Sudoeste 0 -- -- 94
2020-11-16 00:00:00 14.7 7 Sudoeste 21 Sur 0 -- -- 94
2020-11-15 23:00:00 15.5 11 Sudoeste 19 Sur 0 -- -- 91
2020-11-15 22:00:00 15.4 10 Sudoeste 21 Sudoeste 0 -- -- 90
2020-11-15 21:00:00 15 8 Sudoeste 12 Sudoeste 0 -- -- 92
2020-11-15 20:00:00 15.7 8 Sudoeste 19 Sur 0 -- -- 88
2020-11-15 19:00:00 16.4 12 Sudoeste 22 Sur 0 -- -- 85
2020-11-15 18:00:00 17.4 12 Sudoeste 22 Sudoeste 0 -- -- 80
2020-11-15 17:00:00 19.3 11 Sudoeste 26 Sur 0 -- -- 72
2020-11-15 16:00:00 19.4 17 Sudoeste 27 Sudoeste 0 -- -- 71
2020-11-15 15:00:00 19.2 18 Sudoeste 31 Sudoeste 0 -- -- 72
2020-11-15 14:00:00 19.6 16 Sudoeste 28 Sudoeste 0 -- -- 71
2020-11-15 13:00:00 18.9 15 Sudoeste 26 Sudoeste 0 -- -- 75
2020-11-15 12:00:00 17.6 17 Sudoeste 23 Sudoeste 0 -- -- 83
2020-11-15 11:00:00 15.8 9 Sudoeste 18 Sudoeste 0 -- -- 93
2020-11-15 10:00:00 14 9 Sudoeste 16 Sur 0 -- -- 100
2020-11-15 09:00:00 13.6 10 Sudoeste 15 Sudoeste 0 -- -- 100
2020-11-15 08:00:00 13.6 9 Sudoeste 19 Sudoeste 0 -- -- 100
2020-11-15 07:00:00 13.5 13 Sudoeste 21 Sudoeste 0 -- -- 100
2020-11-15 06:00:00 13.6 14 Sudoeste 21 Sudoeste 0 -- -- 100
2020-11-15 05:00:00 13.5 13 Sudoeste 22 Sudoeste 0 -- -- 100
2020-11-15 04:00:00 13.5 13 Sudoeste 21 Sudoeste 0 -- -- 100
2020-11-15 03:00:00 13.4 11 Sudoeste 19 Sudoeste 0 -- -- 100
2020-11-15 02:00:00 13.6 11 Sudoeste 16 Sudoeste 0 -- -- 100
2020-11-15 01:00:00 13.8 8 Sudoeste 18 Sur 0 -- -- 100
2020-11-15 00:00:00 13.8 12 Sudoeste 17 Sudoeste 0 -- -- 100
2020-11-14 23:00:00 13.9 10 Sudoeste 13 Sudoeste 0 -- -- 100
2020-11-14 22:00:00 14 8 Sudoeste 14 Sudoeste 0 -- -- 100
2020-11-14 21:00:00 14 7 Sudoeste 13 Sudoeste 0 -- -- 100
2020-11-14 20:00:00 13.9 7 Sudoeste 15 Sudoeste 0 -- -- 100
2020-11-14 19:00:00 14.1 8 Sudoeste 17 Sudoeste 0 -- -- 100
2020-11-14 18:00:00 14.6 10 Sudoeste 20 Oeste 0 -- -- 99
2020-11-14 17:00:00 15.2 10 Sudoeste 21 Sudoeste 0 -- -- 98
2020-11-14 16:00:00 14.6 12 Sudoeste 22 Sudoeste 0 -- -- 100
2020-11-14 15:00:00 14 12 Sudoeste 21 Sudoeste 0 -- -- 100
2020-11-14 14:00:00 13.9 13 Sudoeste 26 Sudoeste 0 -- -- 100
2020-11-14 13:00:00 13.5 11 Sudoeste 20 Sudoeste 0.2 -- -- 100
2020-11-14 12:00:00 13.2 11 Sudoeste 22 Sur 0 -- -- 100
2020-11-14 11:00:00 12.6 12 Sudoeste 22 Sur 0 -- -- 100
2020-11-14 10:00:00 12.4 15 Sudoeste 30 Sur 0.2 -- -- 100
2020-11-14 09:00:00 12.5 17 Sudoeste 31 Sudoeste 0 -- -- 100
2020-11-14 08:00:00 12.5 14 Sudoeste 28 Sur 0.4 -- -- 100
2020-11-14 07:00:00 12.7 15 Sudoeste 23 Sudoeste 0 -- -- 100
2020-11-14 06:00:00 12.5 12 Sudoeste 23 Sudoeste 0 -- -- 100
2020-11-14 05:00:00 12.5 14 Sudoeste 24 Sudoeste 0.4 -- -- 100
2020-11-14 04:00:00 12.6 11 Sudoeste 21 Sur 1.2 -- -- 100
2020-11-14 03:00:00 12.6 13 Sudoeste 30 Oeste 3.6 -- -- 100
2020-11-14 02:00:00 12.7 13 Sudoeste 25 Sur 1.8 -- -- 99
2020-11-14 01:00:00 13.4 13 Sudoeste 21 Sudoeste 0 -- -- 91
2020-11-14 00:00:00 13.4 9 Sur 19 Sur 0 -- -- 85
2020-11-13 23:00:00 13.8 12 Sudoeste 24 Sur 0 -- -- 82
2020-11-13 22:00:00 14.2 14 Sur 21 Sudoeste 0 -- -- 80
2020-11-13 21:00:00 14.2 12 Sur 22 Sudoeste 0 -- -- 79
2020-11-13 20:00:00 14 10 Sudoeste 19 Sudoeste 0 -- -- 82
2020-11-13 19:00:00 13.8 12 Sudoeste 23 Sudoeste 0 -- -- 85
2020-11-13 18:00:00 14.3 13 Sudoeste 24 Sur 0 -- -- 82
2020-11-13 17:00:00 15 12 Sudoeste 23 Sudoeste 0 -- -- 77
2020-11-13 16:00:00 15.9 16 Sudoeste 27 Sudoeste 0 -- -- 73
2020-11-13 15:00:00 15.3 18 Sur 27 Sur 0 -- -- 76
2020-11-13 14:00:00 15.3 15 Sudoeste 25 Sudoeste 0 -- -- 73
2020-11-13 13:00:00 16.5 15 Sur 24 Sudoeste 0 -- -- 67
2020-11-13 12:00:00 15.4 12 Sur 19 Sur 0 -- -- 71
2020-11-13 11:00:00 14.8 7 Sur 12 Sur 0 -- -- 78
2020-11-13 10:00:00 12.8 5 Sudeste 11 Sudeste 0 -- -- 83
2020-11-13 09:00:00 11.7 2 Nordeste 6 Este 0 -- -- 88
2020-11-13 08:00:00 10.2 2 Nordeste 5 Este 0 -- -- 91
2020-11-13 07:00:00 10 3 Este 6 Este 0 -- -- 93
2020-11-13 06:00:00 9.8 5 Nordeste 9 Nordeste 0 -- -- 94
2020-11-13 05:00:00 8.8 4 Nordeste 6 Nordeste 0 -- -- 97
2020-11-13 04:00:00 8.9 4 Norte 6 Norte 0 -- -- 98
2020-11-13 03:00:00 8.9 4 Nordeste 6 Norte 0 -- -- 97
2020-11-13 02:00:00 8.8 2 Nordeste 4 Norte 0 -- -- 97
2020-11-13 01:00:00 8.9 2 Norte 4 Nordeste 0 -- -- 96
2020-11-13 00:00:00 9.9 2 Sur 12 Sudeste 0 -- -- 92
2020-11-12 23:00:00 11.1 5 Sudeste 18 Sudeste 0 -- -- 83
2020-11-12 22:00:00 11.9 7 Sudeste 15 Sudeste 0 -- -- 75
2020-11-12 21:00:00 12.3 6 Sudeste 17 Este 0 -- -- 73
2020-11-12 20:00:00 12.2 4 Este 11 Sudeste 0 -- -- 74
2020-11-12 19:00:00 12.5 5 Este 10 Sudeste 0 -- -- 70
2020-11-12 18:00:00 15.5 6 Sudeste 18 Sur 0 -- -- 62
2020-11-12 17:00:00 16.6 10 Sur 23 Sudeste 0 -- -- 53
2020-11-12 16:00:00 17.2 12 Sur 26 Sur 0 -- -- 52
2020-11-12 15:00:00 17.1 9 Sudeste 22 Sur 0 -- -- 53
2020-11-12 14:00:00 18.1 14 Sur 26 Sudeste 0 -- -- 50
2020-11-12 13:00:00 17.5 14 Sur 25 Sudeste 0 -- -- 53
2020-11-12 12:00:00 16.6 8 Sudeste 20 Este 0 -- -- 65
2020-11-12 11:00:00 12.6 11 Este 22 Nordeste 0 -- -- 83
2020-11-12 10:00:00 12.3 12 Nordeste 19 Este 0 -- -- 83
2020-11-12 09:00:00 11.7 9 Nordeste 15 Nordeste 0 -- -- 82
2020-11-12 08:00:00 10.8 5 Este 11 Nordeste 0 -- -- 85
2020-11-12 07:00:00 11.1 4 Este 14 Este 0 -- -- 84
2020-11-12 06:00:00 11.5 8 Este 13 Este 0 -- -- 81
2020-11-12 05:00:00 10.5 7 Nordeste 13 Nordeste 0 -- -- 89
2020-11-12 04:00:00 10.2 7 Nordeste 10 Nordeste 0 -- -- 90
2020-11-12 03:00:00 9.7 3 Nordeste 8 Nordeste 0 -- -- 91
2020-11-12 02:00:00 10.6 6 Nordeste 10 Nordeste 0 -- -- 89
2020-11-12 01:00:00 10.5 0 Calma 3 Sudeste 0 -- -- 90
2020-11-12 00:00:00 10.8 0 Calma 6 Sudeste 0 -- -- 87
2020-11-11 23:00:00 11.3 0 Calma 10 Sudeste 0 -- -- 86
2020-11-11 22:00:00 11.8 5 Sudeste 10 Sudeste 0 -- -- 83
2020-11-11 21:00:00 12 7 Nordeste 13 Sudeste 0 -- -- 80
2020-11-11 20:00:00 12.7 4 Este 9 Este 0 -- -- 73
2020-11-11 19:00:00 12.6 4 Sudeste 8 Este 0 -- -- 77
2020-11-11 18:00:00 14.4 4 Este 16 Sudeste 0 -- -- 71
2020-11-11 17:00:00 16.1 6 Este 14 Este 0 -- -- 63
2020-11-11 16:00:00 17.2 8 Sudeste 15 Sudeste 0 -- -- 56
2020-11-11 15:00:00 17.7 10 Sur 22 Sudeste 0 -- -- 55
2020-11-11 14:00:00 17.9 13 Sudeste 28 Sudeste 0 -- -- 56
2020-11-11 13:00:00 17.1 10 Sur 21 Sudeste 0 -- -- 61
2020-11-11 12:00:00 15.8 12 Sur 23 Sudeste 0 -- -- 67
2020-11-11 11:00:00 14.7 12 Sur 19 Sudeste 0 -- -- 72
2020-11-11 10:00:00 13.1 8 Sudeste 17 Sudeste 0 -- -- 80
2020-11-11 09:00:00 11.4 7 Sur 18 Sudeste 0 -- -- 89
2020-11-11 08:00:00 11 8 Sudeste 21 Sudeste 0 -- -- 89
2020-11-11 07:00:00 11.2 9 Sudeste 21 Sudeste 0 -- -- 86
2020-11-11 06:00:00 10.9 10 Sudeste 22 Sudeste 0 -- -- 88
2020-11-11 05:00:00 11 7 Sudeste 12 Sudeste 0 -- -- 86
2020-11-11 04:00:00 10.8 4 Sudeste 15 Sudeste 0 -- -- 84
2020-11-11 03:00:00 10.4 8 Sudeste 15 Sudeste 0 -- -- 83
2020-11-11 02:00:00 9.8 0 Calma 4 Sudoeste 0 -- -- 83
2020-11-11 01:00:00 10.7 0 Calma 8 Sudeste 0 -- -- 78
2020-11-11 00:00:00 12.2 6 Este 14 Este 0 -- -- 72
2020-11-10 23:00:00 11.1 9 Nordeste 14 Nordeste 0 -- -- 84
2020-11-10 22:00:00 12 11 Nordeste 17 Nordeste 0 -- -- 80
2020-11-10 21:00:00 11.8 8 Nordeste 11 Nordeste 0 -- -- 83
2020-11-10 20:00:00 12.4 6 Nordeste 10 Nordeste 0 -- -- 80
2020-11-10 19:00:00 12.7 4 Nordeste 9 Nordeste 0 -- -- 78
2020-11-10 18:00:00 14.9 6 Nordeste 14 Este 0 -- -- 67
2020-11-10 17:00:00 17.3 7 Nordeste 19 Norte 0 -- -- 58
2020-11-10 16:00:00 17.6 6 Este 18 Este 0 -- -- 57
2020-11-10 15:00:00 18.3 8 Este 19 Este 0 -- -- 55
2020-11-10 14:00:00 17.8 7 Nordeste 19 Este 0 -- -- 61
2020-11-10 13:00:00 16 10 Nordeste 15 Nordeste 0 -- -- 69
2020-11-10 12:00:00 14.6 7 Este 15 Sudeste 0 -- -- 78
2020-11-10 11:00:00 12.6 10 Nordeste 18 Nordeste 0 -- -- 87
2020-11-10 10:00:00 11.7 9 Nordeste 14 Nordeste 0 -- -- 89
2020-11-10 09:00:00 10.1 9 Nordeste 12 Norte 0 -- -- 95
2020-11-10 08:00:00 9 6 Nordeste 14 Norte 0.2 -- -- 98
2020-11-10 07:00:00 9.3 9 Nordeste 14 Nordeste 0 -- -- 98
2020-11-10 06:00:00 9.4 8 Nordeste 15 Nordeste 0 -- -- 99
2020-11-10 05:00:00 9.3 6 Nordeste 14 Nordeste 0 -- -- 100
2020-11-10 04:00:00 9.5 8 Nordeste 14 Norte 0 -- -- 99
2020-11-10 03:00:00 9.6 6 Nordeste 11 Nordeste 0 -- -- 98
2020-11-10 02:00:00 9.6 4 Nordeste 11 Norte 0 -- -- 97
2020-11-10 01:00:00 9.7 6 Nordeste 8 Norte 0 -- -- 96
2020-11-10 00:00:00 10.2 7 Nordeste 13 Norte 0 -- -- 93
2020-11-09 23:00:00 10.8 10 Norte 16 Norte 0 -- -- 91
2020-11-09 22:00:00 11.7 13 Norte 18 Norte 0 -- -- 86
2020-11-09 21:00:00 11.9 11 Norte 15 Norte 0 -- -- 85
2020-11-09 20:00:00 11.8 8 Norte 14 Norte 0 -- -- 84
2020-11-09 19:00:00 12.4 7 Norte 12 Norte 0 -- -- 79
2020-11-09 18:00:00 14.2 7 Norte 12 Noroeste 0 -- -- 68
2020-11-09 17:00:00 16.8 5 Norte 12 Norte 0 -- -- 59
2020-11-09 16:00:00 14.8 5 Norte 10 Norte 0 -- -- 66
2020-11-09 15:00:00 15 6 Norte 14 Norte 0 -- -- 67
2020-11-09 14:00:00 16.1 4 Nordeste 17 Norte 0 -- -- 59
2020-11-09 13:00:00 15 6 Norte 15 Norte 0 -- -- 71
2020-11-09 12:00:00 14.2 6 Nordeste 15 Nordeste 0 -- -- 80
2020-11-09 11:00:00 12.8 8 Norte 13 Nordeste 0 -- -- 92
2020-11-09 10:00:00 11.7 9 Nordeste 13 Nordeste 0 -- -- 99
2020-11-09 09:00:00 10.7 8 Nordeste 13 Norte 0 -- -- 100
2020-11-09 08:00:00 10.7 3 Este 7 Nordeste 0 -- -- 100
2020-11-09 07:00:00 10.9 2 Sudeste 12 Nordeste 3.4 -- -- 100
2020-11-09 06:00:00 11 8 Nordeste 22 Norte 6.6 -- -- 100
2020-11-09 05:00:00 11.4 5 Oeste 25 Oeste 17.8 -- -- 100
2020-11-09 04:00:00 12.3 15 Sudoeste 26 Sur 0.4 -- -- 100
2020-11-09 03:00:00 12.2 13 Sudoeste 22 Sudoeste 0 -- -- 100
2020-11-09 02:00:00 12.2 15 Sudoeste 23 Sudoeste 0 -- -- 100
2020-11-09 01:00:00 12.3 14 Sudoeste 25 Sudoeste 0 -- -- 99
2020-11-09 00:00:00 12.3 16 Sudoeste 23 Sudoeste 0 -- -- 97
2020-11-08 23:00:00 12.3 11 Sudoeste 24 Sudoeste 0 -- -- 96
2020-11-08 22:00:00 12.6 14 Sudoeste 25 Sur 0 -- -- 94
2020-11-08 21:00:00 13.1 14 Sudoeste 26 Sudoeste 0 -- -- 91
2020-11-08 20:00:00 13.4 18 Sudoeste 30 Sudoeste 0 -- -- 86
2020-11-08 19:00:00 13.6 15 Sudoeste 27 Sur 0 -- -- 82
2020-11-08 18:00:00 13.9 14 Sudoeste 29 Sudoeste 0 -- -- 81
2020-11-08 17:00:00 15 18 Sudoeste 30 Sudoeste 0 -- -- 75
2020-11-08 16:00:00 16 18 Sudoeste 29 Sur 0 -- -- 67
2020-11-08 15:00:00 16 16 Sudoeste 27 Sudoeste 0 -- -- 70
2020-11-08 14:00:00 15.3 15 Sudoeste 28 Sur 0 -- -- 70
2020-11-08 13:00:00 15.1 16 Sudoeste 29 Sudoeste 0 -- -- 72
2020-11-08 12:00:00 15.4 17 Sudoeste 34 Sudoeste 0 -- -- 75
2020-11-08 11:00:00 14.1 16 Sudoeste 27 Sudoeste 0 -- -- 85
2020-11-08 10:00:00 12.9 15 Sudoeste 26 Sur 0 -- -- 88
2020-11-08 09:00:00 11.7 13 Sur 24 Sudoeste 0 -- -- 92
2020-11-08 08:00:00 11.1 13 Sur 25 Sur 0 -- -- 95
2020-11-08 07:00:00 11.1 11 Sur 32 Sur 0 -- -- 99
2020-11-08 06:00:00 11.4 14 Sudoeste 25 Sudoeste 0 -- -- 98
2020-11-08 05:00:00 11 15 Sudoeste 25 Sudoeste 0 -- -- 100
2020-11-08 04:00:00 11.3 15 Sudoeste 26 Sudoeste 0 -- -- 94
2020-11-08 03:00:00 10.9 12 Sudoeste 22 Sudoeste 0 -- -- 99
2020-11-08 02:00:00 11.2 14 Sudoeste 26 Sur 0 -- -- 100
2020-11-08 01:00:00 11.4 15 Sudoeste 25 Sudoeste 0 -- -- 98
2020-11-08 00:00:00 11.5 15 Sudoeste 26 Sudoeste 0 -- -- 97
2020-11-07 23:00:00 11.5 12 Sur 22 Sudoeste 0 -- -- 96
2020-11-07 22:00:00 11.5 13 Sur 21 Sudoeste 0 -- -- 95
2020-11-07 21:00:00 11.7 10 Sudoeste 23 Sur 0 -- -- 91
2020-11-07 20:00:00 12.5 13 Sudoeste 26 Sur 0 -- -- 87
2020-11-07 19:00:00 12.8 12 Sudoeste 29 Sur 0 -- -- 88
2020-11-07 18:00:00 13.7 14 Sudoeste 24 Sur 0 -- -- 79
2020-11-07 17:00:00 14.6 12 Sudoeste 28 Sudoeste 0 -- -- 73
2020-11-07 16:00:00 15 16 Sudoeste 30 Sudoeste 0 -- -- 69
2020-11-07 15:00:00 15.4 20 Sudoeste 35 Sudoeste 0 -- -- 67
2020-11-07 14:00:00 14.3 18 Sudoeste 29 Sudoeste 0 -- -- 70
2020-11-07 13:00:00 13.2 17 Sudoeste 29 Sur 0 -- -- 82
2020-11-07 12:00:00 12.9 16 Sudoeste 29 Sudoeste 0 -- -- 86
2020-11-07 11:00:00 11.6 17 Sudoeste 26 Sudoeste 0 -- -- 94
2020-11-07 10:00:00 10.7 15 Sudoeste 30 Sudoeste 0 -- -- 97
2020-11-07 09:00:00 10 16 Sudoeste 27 Sudoeste 0 -- -- 100
2020-11-07 08:00:00 9.8 18 Sudoeste 30 Sudoeste 0 -- -- 100
2020-11-07 07:00:00 9.9 17 Sudoeste 27 Sudoeste 0 -- -- 100
2020-11-07 06:00:00 9.9 15 Sudoeste 31 Sudoeste 0 -- -- 100
2020-11-07 05:00:00 10 21 Sudoeste 41 Sur 0 -- -- 96
2020-11-07 04:00:00 10.1 16 Sur 40 Sudoeste 1.2 -- -- 93
2020-11-07 03:00:00 9.8 21 Sur 49 Sudoeste 7 -- -- 99
2020-11-07 02:00:00 10.8 14 Sudoeste 33 Sudoeste 1.6 -- -- 93
2020-11-07 01:00:00 12.1 22 Sudoeste 62 Sudoeste 0.4 -- -- 90
2020-11-07 00:00:00 13.9 23 Sur 40 Sudoeste 0 -- -- 77
2020-11-06 23:00:00 14 19 Sur 33 Sur 0 -- -- 78
2020-11-06 22:00:00 15.2 21 Sudoeste 50 Sudoeste 0 -- -- 68
2020-11-06 21:00:00 15.7 29 Sudoeste 59 Sur 0 -- -- 64
2020-11-06 20:00:00 14.7 20 Sur 39 Sudoeste 0 -- -- 71
2020-11-06 19:00:00 14.7 23 Sudoeste 43 Sur 0 -- -- 74
2020-11-06 18:00:00 15.9 23 Sudoeste 46 Sur 0 -- -- 78
2020-11-06 17:00:00 16.6 27 Sudoeste 46 Sudoeste 0 -- -- 77
2020-11-06 16:00:00 17.6 20 Sur 40 Sur 0 -- -- 67
2020-11-06 15:00:00 19.3 16 Sudoeste 36 Sudoeste 0 -- -- 55
2020-11-06 14:00:00 19.7 14 Sur 26 Sur 0 -- -- 53
2020-11-06 13:00:00 18.8 14 Sudoeste 31 Sur 0 -- -- 54
2020-11-06 12:00:00 17.9 17 Sur 43 Sur 0 -- -- 54
2020-11-06 11:00:00 17.7 22 Sur 42 Sur 0 -- -- 50
2020-11-06 10:00:00 16.4 17 Sur 35 Sur 0 -- -- 53
2020-11-06 09:00:00 15.7 13 Sudeste 30 Este 0 -- -- 54
2020-11-06 08:00:00 14.7 11 Este 27 Este 0 -- -- 58
2020-11-06 07:00:00 14.4 11 Nordeste 20 Este 0 -- -- 61
2020-11-06 06:00:00 14.9 9 Sudeste 23 Sudeste 0 -- -- 59
2020-11-06 05:00:00 14 5 Este 13 Sudeste 0 -- -- 69
2020-11-06 04:00:00 14 3 Oeste 31 Sur 0 -- -- 74
2020-11-06 03:00:00 15.4 15 Sur 48 Sur 0 -- -- 63
2020-11-06 02:00:00 15.3 20 Sur 40 Sur 0 -- -- 62
2020-11-06 01:00:00 14.4 17 Sur 35 Sudeste 0 -- -- 70
2020-11-06 00:00:00 13.7 17 Sudeste 31 Sur 0 -- -- 75
2020-11-05 23:00:00 13.6 14 Sudeste 39 Sudeste 0 -- -- 77
2020-11-05 22:00:00 13.8 20 Sudeste 35 Sudeste 0 -- -- 78
2020-11-05 21:00:00 13.6 21 Sudeste 37 Sur 0 -- -- 81
2020-11-05 20:00:00 13.7 19 Sudeste 44 Sudeste 0 -- -- 82
2020-11-05 19:00:00 13.2 17 Sudeste 35 Sudeste 0 -- -- 83
2020-11-05 18:00:00 14 16 Sudeste 32 Sur 0 -- -- 83
2020-11-05 17:00:00 14.9 15 Sur 30 Sur 0 -- -- 83
2020-11-05 16:00:00 15.1 14 Sudeste 28 Sudeste 0 -- -- 84
2020-11-05 15:00:00 11.9 10 Sudeste 23 Sudeste 0 -- -- 93
2020-11-05 14:00:00 11.5 8 Sudeste 24 Sudeste 0 -- -- 97
2020-11-05 13:00:00 11.5 14 Sudeste 25 Sudeste 0.8 -- -- 99
2020-11-05 12:00:00 12 14 Sur 31 Sudeste 0.4 -- -- 97
2020-11-05 11:00:00 11.6 12 Sur 21 Sur 3.2 -- -- 100
2020-11-05 10:00:00 11.2 13 Sur 35 Sur 0 -- -- 97
2020-11-05 09:00:00 10.9 20 Sur 39 Sur 1.4 -- -- 99
2020-11-05 08:00:00 10.9 22 Sur 46 Sudoeste 2 -- -- 100
2020-11-05 07:00:00 11.1 17 Sur 40 Sur 9.6 -- -- 100
2020-11-05 06:00:00 11.4 21 Sur 41 Sudeste 1.2 -- -- 99
2020-11-05 05:00:00 10.8 13 Sudeste 32 Sudeste 2.4 -- -- 100
2020-11-05 04:00:00 10.4 10 Nordeste 21 Sudeste 6.4 -- -- 100
2020-11-05 03:00:00 10.7 11 Sudeste 27 Sudeste 10.8 -- -- 100
2020-11-05 02:00:00 11.3 9 Sudeste 22 Este 0.8 -- -- 95
2020-11-05 01:00:00 11.5 10 Este 26 Este 0 -- -- 91
2020-11-05 00:00:00 11.5 12 Sudeste 31 Sudeste 0 -- -- 94
2020-11-04 23:00:00 11.4 12 Sudeste 26 Sudeste 0 -- -- 94
2020-11-04 22:00:00 11.1 10 Sudeste 24 Sudeste 0 -- -- 98
2020-11-04 21:00:00 10.5 2 Sudeste 22 Sudeste 0 -- -- 95
2020-11-04 20:00:00 11.2 11 Sudeste 25 Sudeste 0 -- -- 95
2020-11-04 19:00:00 11.9 11 Sudeste 17 Sudeste 0 -- -- 99
2020-11-04 18:00:00 12.1 7 Sur 17 Sur 0 -- -- 99
2020-11-04 17:00:00 12 10 Sur 22 Sur 1.8 -- -- 99
2020-11-04 16:00:00 12.2 14 Sur 23 Sur 0 -- -- 99
2020-11-04 15:00:00 12.8 12 Sur 19 Sur 0.2 -- -- 99
2020-11-04 14:00:00 12.1 9 Sur 18 Sur 0 -- -- 97
2020-11-04 13:00:00 12.1 9 Sur 21 Sudoeste 0 -- -- 96
2020-11-04 12:00:00 12.3 11 Sudoeste 18 Sudoeste 0 -- -- 96
2020-11-04 11:00:00 13.1 11 Sudoeste 19 Sudoeste 0 -- -- 92
2020-11-04 10:00:00 12.9 4 Sudoeste 8 Sudoeste 0 -- -- 93
2020-11-04 09:00:00 11.2 4 Sudoeste 6 Sudoeste 0 -- -- 100
2020-11-04 08:00:00 9.7 3 Norte 6 Nordeste 0 -- -- 100
2020-11-04 07:00:00 10.7 2 Oeste 7 Oeste 0 -- -- 100
2020-11-04 06:00:00 10.9 3 Oeste 6 Oeste 0.2 -- -- 100
2020-11-04 05:00:00 10.7 0 Calma 7 Norte 0 -- -- 100
2020-11-04 04:00:00 11.5 5 Norte 18 Norte 0 -- -- 100
2020-11-04 03:00:00 12.6 8 Nordeste 16 Norte 0 -- -- 100
2020-11-04 02:00:00 13 7 Nordeste 17 Norte 0 -- -- 96
2020-11-04 01:00:00 13.1 10 Nordeste 17 Norte 0 -- -- 97
2020-11-04 00:00:00 13.3 12 Nordeste 20 Norte 0 -- -- 98
2020-11-03 23:00:00 13.3 14 Nordeste 21 Nordeste 0 -- -- 99
2020-11-03 22:00:00 13.6 13 Norte 22 Norte 0 -- -- 97
2020-11-03 21:00:00 14 12 Norte 19 Norte 0 -- -- 97
2020-11-03 20:00:00 14.2 13 Nordeste 19 Nordeste 0 -- -- 98
2020-11-03 19:00:00 14.4 0 Calma 14 Norte 0 -- -- 99
2020-11-03 18:00:00 14.3 12 Norte 24 Norte 0 -- -- 98
2020-11-03 17:00:00 14.4 17 Norte 28 Norte 0.4 -- -- 99
2020-11-03 16:00:00 14.2 21 Norte 29 Norte 0.8 -- -- 99
2020-11-03 15:00:00 14.4 14 Norte 24 Norte 0.4 -- -- 99
2020-11-03 14:00:00 14.7 14 Norte 23 Norte 0.2 -- -- 99
2020-11-03 13:00:00 16.3 12 Norte 21 Norte 0 -- -- 89
2020-11-03 12:00:00 16.9 13 Norte 22 Norte 0 -- -- 87
2020-11-03 11:00:00 16.1 13 Nordeste 22 Nordeste 0 -- -- 91
2020-11-03 10:00:00 14.9 14 Norte 22 Nordeste 0 -- -- 96
2020-11-03 09:00:00 13.9 9 Nordeste 23 Norte 0 -- -- 100
2020-11-03 08:00:00 13.6 10 Nordeste 22 Nordeste 0 -- -- 100
2020-11-03 07:00:00 13.6 10 Nordeste 23 Norte 0 -- -- 100
2020-11-03 06:00:00 13.6 17 Norte 26 Norte 0 -- -- 100
2020-11-03 05:00:00 13.7 18 Norte 27 Norte 0 -- -- 96
2020-11-03 04:00:00 14.1 16 Norte 26 Norte 0 -- -- 95
2020-11-03 03:00:00 13.8 15 Norte 24 Norte 0 -- -- 98
2020-11-03 02:00:00 14.6 16 Norte 31 Norte 0 -- -- 92
2020-11-03 01:00:00 14 22 Norte 29 Norte 0 -- -- 97
2020-11-03 00:00:00 14.5 18 Norte 28 Norte 0 -- -- 93
2020-11-02 23:00:00 14.6 20 Norte 30 Norte 0 -- -- 95
2020-11-02 22:00:00 14.9 20 Norte 30 Nordeste 0 -- -- 93
2020-11-02 21:00:00 15.3 21 Norte 27 Norte 0 -- -- 92
2020-11-02 20:00:00 15.9 21 Norte 28 Norte 0 -- -- 82
2020-11-02 19:00:00 16.8 20 Norte 26 Norte 0 -- -- 64
2020-11-02 18:00:00 18.7 15 Norte 23 Norte 0 -- -- 63
2020-11-02 17:00:00 22.1 0 Calma 12 Sudoeste 0 -- -- 32
2020-11-02 16:00:00 23.9 7 Sudoeste 16 Sudoeste 0 -- -- 28
2020-11-02 15:00:00 24.2 6 Sudoeste 14 Sudoeste 0 -- -- 30
2020-11-02 14:00:00 23.8 3 Este 12 Nordeste 0 -- -- 40
2020-11-02 13:00:00 23.1 6 Norte 11 Nordeste 0 -- -- 44
2020-11-02 12:00:00 21.6 6 Norte 12 Nordeste 0 -- -- 46
2020-11-02 11:00:00 19.2 7 Nordeste 13 Nordeste 0 -- -- 51
2020-11-02 10:00:00 17.9 9 Nordeste 14 Nordeste 0 -- -- 49
2020-11-02 09:00:00 15.8 9 Nordeste 13 Nordeste 0 -- -- 59
2020-11-02 08:00:00 13.4 9 Nordeste 16 Nordeste 0 -- -- 64
2020-11-02 07:00:00 13.9 12 Nordeste 17 Nordeste 0 -- -- 71
2020-11-02 06:00:00 14 13 Nordeste 16 Nordeste 0 -- -- 81
2020-11-02 05:00:00 14.4 11 Nordeste 14 Norte 0 -- -- 82
2020-11-02 04:00:00 14.4 11 Nordeste 15 Nordeste 0 -- -- 80
2020-11-02 03:00:00 14.4 12 Norte 15 Nordeste 0 -- -- 80
2020-11-02 02:00:00 14.5 13 Nordeste 18 Nordeste 0 -- -- 84
2020-11-02 01:00:00 14.7 14 Nordeste 17 Norte 0 -- -- 83
2020-11-02 00:00:00 14.6 13 Nordeste 20 Nordeste 0 -- -- 82
2020-11-01 23:00:00 15.3 14 Nordeste 19 Norte 0 -- -- 78
2020-11-01 22:00:00 15.8 14 Norte 20 Norte 0 -- -- 76
2020-11-01 21:00:00 15.9 10 Norte 16 Norte 0 -- -- 75
2020-11-01 20:00:00 16.4 9 Norte 15 Norte 0 -- -- 73
2020-11-01 19:00:00 17.4 9 Norte 16 Norte 0 -- -- 69
2020-11-01 18:00:00 19 9 Norte 13 Norte 0 -- -- 57
2020-11-01 17:00:00 21.7 5 Norte 10 Nordeste 0 -- -- 48
2020-11-01 16:00:00 22.3 4 Nordeste 14 Nordeste 0 -- -- 46
2020-11-01 15:00:00 22.3 6 Norte 14 Nordeste 0 -- -- 47
2020-11-01 14:00:00 22.7 6 Nordeste 16 Nordeste 0 -- -- 46
2020-11-01 13:00:00 21.2 9 Nordeste 19 Norte 0 -- -- 53
2020-11-01 12:00:00 19.8 12 Nordeste 22 Nordeste 0 -- -- 60
2020-11-01 11:00:00 18.1 14 Nordeste 23 Norte 0 -- -- 67
2020-11-01 10:00:00 16.8 15 Nordeste 21 Norte 0 -- -- 69
2020-11-01 09:00:00 15.6 13 Nordeste 17 Nordeste 0 -- -- 72
2020-11-01 08:00:00 14 12 Nordeste 18 Norte 0 -- -- 78
2020-11-01 07:00:00 13.9 15 Nordeste 22 Nordeste 0 -- -- 81
2020-11-01 06:00:00 14.5 15 Nordeste 19 Nordeste 0 -- -- 82
2020-11-01 05:00:00 14.4 11 Nordeste 15 Norte 0 -- -- 79
2020-11-01 04:00:00 14.7 12 Nordeste 19 Norte 0 -- -- 82
2020-11-01 03:00:00 15.7 13 Norte 23 Norte 0 -- -- 76
2020-11-01 02:00:00 15.7 17 Norte 26 Norte 0 -- -- 78
2020-11-01 01:00:00 15.5 19 Norte 28 Norte 0 -- -- 78
2020-11-01 00:00:00 16.5 16 Norte 23 Norte 0 -- -- 61
2020-10-31 23:00:00 16.6 13 Norte 19 Norte 0 -- -- 61
2020-10-31 22:00:00 16.7 15 Norte 24 Norte 0 -- -- 63
2020-10-31 21:00:00 17 15 Norte 26 Norte 0 -- -- 63
2020-10-31 20:00:00 17.8 13 Norte 21 Noroeste 0 -- -- 59
2020-10-31 19:00:00 18.6 10 Norte 17 Noroeste 0 -- -- 53
2020-10-31 18:00:00 20.7 9 Norte 13 Norte 0 -- -- 48
2020-10-31 17:00:00 23.9 5 Norte 12 Norte 0 -- -- 36
2020-10-31 16:00:00 24.2 3 Sudoeste 16 Oeste 0 -- -- 34
2020-10-31 15:00:00 24.1 6 Oeste 14 Sudoeste 0 -- -- 35
2020-10-31 14:00:00 24 8 Norte 18 Este 0 -- -- 33
2020-10-31 13:00:00 22.7 4 Sudoeste 14 Sudoeste 0 -- -- 37
2020-10-31 12:00:00 20.7 6 Sudoeste 12 Oeste 0 -- -- 41
2020-10-31 11:00:00 20.1 5 Sudoeste 8 Sudoeste 0 -- -- 41
2020-10-31 10:00:00 18.9 2 Sur 4 Sur 0 -- -- 43
2020-10-31 09:00:00 15.6 3 Sudeste 10 Nordeste 0 -- -- 56
2020-10-31 08:00:00 12.6 6 Nordeste 9 Norte 0 -- -- 71
2020-10-31 07:00:00 13.4 6 Nordeste 8 Nordeste 0 -- -- 67
2020-10-31 06:00:00 12.3 4 Nordeste 5 Nordeste 0 -- -- 70
2020-10-31 05:00:00 12.4 3 Nordeste 5 Nordeste 0 -- -- 68
2020-10-31 04:00:00 12.4 0 Calma 3 Norte 0 -- -- 67
2020-10-31 03:00:00 13.1 3 Norte 7 Nordeste 0 -- -- 64
2020-10-31 02:00:00 13.8 6 Norte 8 Norte 0 -- -- 60
2020-10-31 01:00:00 14 6 Nordeste 8 Norte 0 -- -- 59
2020-10-31 00:00:00 14.1 5 Norte 8 Norte 0 -- -- 60
2020-10-30 23:00:00 13.9 3 Nordeste 4 Norte 0 -- -- 63
2020-10-30 22:00:00 14.3 2 Nordeste 5 Norte 0 -- -- 62
2020-10-30 21:00:00 15.1 4 Norte 7 Norte 0 -- -- 59
2020-10-30 20:00:00 16 3 Nordeste 5 Nordeste 0 -- -- 61
2020-10-30 19:00:00 16.3 0 Calma 4 Sudoeste 0 -- -- 66
2020-10-30 18:00:00 20.2 3 Sudoeste 9 Sur 0 -- -- 49
2020-10-30 17:00:00 22.1 4 Sudoeste 13 Sur 0 -- -- 39
2020-10-30 16:00:00 23.1 7 Sudoeste 19 Sudoeste 0 -- -- 34
2020-10-30 15:00:00 23.6 8 Sur 22 Sur 0 -- -- 35
2020-10-30 14:00:00 23.7 9 Sur 22 Sudoeste 0 -- -- 35
2020-10-30 13:00:00 22.5 13 Sur 27 Sur 0 -- -- 38
2020-10-30 12:00:00 21.3 12 Sur 19 Sudoeste 0 -- -- 44
2020-10-30 11:00:00 20.5 10 Sur 19 Sur 0 -- -- 46
2020-10-30 10:00:00 18.8 9 Sudeste 19 Sudeste 0 -- -- 52
2020-10-30 09:00:00 15.8 3 Sudeste 12 Sudeste 0 -- -- 62
2020-10-30 08:00:00 13.8 6 Sudeste 14 Sudeste 0 -- -- 70
2020-10-30 07:00:00 15.1 7 Sudeste 23 Este 0 -- -- 64
2020-10-30 06:00:00 15.6 9 Sudeste 18 Sudeste 0 -- -- 64
2020-10-30 05:00:00 14.8 2 Sudeste 16 Sudeste 0 -- -- 64
2020-10-30 04:00:00 15.7 6 Nordeste 13 Este 0 -- -- 60
2020-10-30 03:00:00 16 5 Este 10 Este 0 -- -- 59
2020-10-30 02:00:00 15.9 6 Nordeste 9 Nordeste 0 -- -- 62
2020-10-30 01:00:00 15.9 5 Nordeste 8 Este 0 -- -- 64
2020-10-30 00:00:00 13.6 4 Nordeste 10 Nordeste 0 -- -- 77
2020-10-29 23:00:00 15 7 Nordeste 10 Nordeste 0 -- -- 72
2020-10-29 22:00:00 15.3 8 Nordeste 12 Norte 0 -- -- 71
2020-10-29 21:00:00 15.9 9 Nordeste 15 Norte 0 -- -- 63
2020-10-29 20:00:00 16.1 5 Este 6 Este 0 -- -- 63
2020-10-29 19:00:00 17.1 5 Este 9 Sur 0 -- -- 57
2020-10-29 18:00:00 22.2 7 Sur 15 Sur 0 -- -- 41
2020-10-29 17:00:00 23.1 11 Sur 17 Sudeste 0 -- -- 39
2020-10-29 16:00:00 24.1 7 Sudeste 15 Sudeste 0 -- -- 43
2020-10-29 15:00:00 23.4 6 Este 15 Este 0 -- -- 48
2020-10-29 14:00:00 22.3 8 Este 15 Norte 0 -- -- 53
2020-10-29 13:00:00 20.6 8 Nordeste 17 Nordeste 0 -- -- 60
2020-10-29 12:00:00 18.1 13 Nordeste 24 Nordeste 0 -- -- 71
2020-10-29 11:00:00 16.6 13 Nordeste 24 Nordeste 0 -- -- 77
2020-10-29 10:00:00 14.9 12 Nordeste 19 Norte 0 -- -- 86
2020-10-29 09:00:00 13 12 Nordeste 22 Nordeste 0 -- -- 92
2020-10-29 08:00:00 11.8 17 Nordeste 23 Norte 0 -- -- 97
2020-10-29 07:00:00 11.7 17 Nordeste 23 Nordeste 0 -- -- 97
2020-10-29 06:00:00 11.9 14 Nordeste 23 Nordeste 0 -- -- 96
2020-10-29 05:00:00 12.3 18 Nordeste 23 Nordeste 0 -- -- 96
2020-10-29 04:00:00 12.6 15 Nordeste 22 Nordeste 0 -- -- 93
2020-10-29 03:00:00 12.8 15 Nordeste 21 Nordeste 0 -- -- 92
2020-10-29 02:00:00 12.8 15 Nordeste 21 Nordeste 0 -- -- 93
2020-10-29 01:00:00 12.7 14 Nordeste 19 Nordeste 0 -- -- 94
2020-10-29 00:00:00 12.3 8 Nordeste 19 Norte 0 -- -- 96
2020-10-28 23:00:00 12.6 14 Nordeste 21 Norte 0 -- -- 95
2020-10-28 22:00:00 12.6 14 Norte 28 Norte 0 -- -- 96
2020-10-28 21:00:00 13.4 17 Norte 29 Norte 0 -- -- 92
2020-10-28 20:00:00 14.4 10 Nordeste 15 Norte 0 -- -- 85
2020-10-28 19:00:00 14.7 10 Nordeste 14 Norte 0 -- -- 84
2020-10-28 18:00:00 17.5 7 Norte 19 Nordeste 0 -- -- 73
2020-10-28 17:00:00 19.3 10 Nordeste 27 Norte 0 -- -- 65
2020-10-28 16:00:00 18.8 16 Norte 26 Nordeste 0 -- -- 66
2020-10-28 15:00:00 18 15 Nordeste 25 Nordeste 0 -- -- 68
2020-10-28 14:00:00 17.6 11 Nordeste 22 Nordeste 0 -- -- 67
2020-10-28 13:00:00 15.5 15 Nordeste 22 Norte 0 -- -- 74
2020-10-28 12:00:00 14.4 10 Nordeste 20 Norte 0 -- -- 77
2020-10-28 11:00:00 13.3 8 Nordeste 22 Nordeste 0 -- -- 79
2020-10-28 10:00:00 11.7 13 Nordeste 20 Nordeste 0 -- -- 86
2020-10-28 09:00:00 10.3 9 Nordeste 17 Nordeste 0 -- -- 89
2020-10-28 08:00:00 9.1 11 Nordeste 17 Nordeste 0 -- -- 93
2020-10-28 07:00:00 9.2 10 Norte 18 Nordeste 0 -- -- 89
2020-10-28 06:00:00 9.4 9 Norte 19 Norte 0 -- -- 87
2020-10-28 05:00:00 9.6 12 Norte 21 Norte 0 -- -- 86
2020-10-28 04:00:00 9.9 13 Norte 20 Norte 0 -- -- 86
2020-10-28 03:00:00 9.6 8 Norte 15 Norte 0 -- -- 85
2020-10-28 02:00:00 9.3 2 Norte 19 Nordeste 0 -- -- 87
2020-10-28 01:00:00 8 2 Norte 4 Norte 0 -- -- 94
2020-10-28 00:00:00 8 2 Nordeste 7 Nordeste 0 -- -- 91
2020-10-27 23:00:00 9.3 8 Nordeste 12 Norte 0 -- -- 86
2020-10-27 22:00:00 9.7 9 Nordeste 14 Norte 0 -- -- 83
2020-10-27 21:00:00 10 10 Nordeste 14 Norte 0 -- -- 83
2020-10-27 20:00:00 10.5 9 Norte 19 Nordeste 0 -- -- 81
2020-10-27 19:00:00 11.5 11 Norte 18 Norte 0 -- -- 73
2020-10-27 18:00:00 13.6 7 Norte 16 Norte 0 -- -- 63
2020-10-27 17:00:00 15.1 9 Norte 18 Norte 0 -- -- 56
2020-10-27 16:00:00 15.8 10 Norte 21 Norte 0 -- -- 55
2020-10-27 15:00:00 15.7 10 Norte 20 Nordeste 0 -- -- 52
2020-10-27 14:00:00 15 9 Norte 17 Nordeste 0 -- -- 52
2020-10-27 13:00:00 14.6 7 Norte 18 Noroeste 0 -- -- 53
2020-10-27 12:00:00 12.6 7 Nordeste 15 Norte 0 -- -- 58
2020-10-27 11:00:00 11.5 11 Norte 18 Nordeste 0 -- -- 61
2020-10-27 10:00:00 10.4 10 Norte 18 Norte 0 -- -- 61
2020-10-27 09:00:00 8.5 8 Norte 14 Norte 0 -- -- 73
2020-10-27 08:00:00 6.3 7 Norte 9 Norte 0 -- -- 87
2020-10-27 07:00:00 6.9 7 Norte 10 Norte 0 -- -- 84
2020-10-27 06:00:00 6.6 6 Norte 14 Norte 0 -- -- 85
2020-10-27 05:00:00 7.9 10 Norte 18 Norte 0 -- -- 78
2020-10-27 04:00:00 8.3 9 Norte 18 Noroeste 0 -- -- 77
2020-10-27 03:00:00 8.2 10 Norte 24 Norte 0 -- -- 79
2020-10-27 02:00:00 8.5 12 Norte 26 Norte 0 -- -- 77
2020-10-27 01:00:00 8.8 12 Norte 25 Norte 0 -- -- 76
2020-10-27 00:00:00 8.6 5 Noroeste 16 Noroeste 0 -- -- 75
2020-10-26 23:00:00 9.2 8 Noroeste 19 Noroeste 0 -- -- 75
2020-10-26 22:00:00 9.2 10 Norte 20 Noroeste 0 -- -- 74
2020-10-26 21:00:00 9 8 Norte 15 Norte 0 -- -- 77
2020-10-26 20:00:00 9.1 7 Norte 13 Noroeste 0 -- -- 77
2020-10-26 19:00:00 9.5 4 Norte 26 Norte 0 -- -- 73
2020-10-26 18:00:00 11.4 8 Norte 23 Noroeste 0 -- -- 64
2020-10-26 17:00:00 12.9 12 Norte 27 Nordeste 0 -- -- 58
2020-10-26 16:00:00 13 12 Norte 29 Noroeste 0 -- -- 57
2020-10-26 15:00:00 13.3 10 Noroeste 31 Noroeste 0 -- -- 56
2020-10-26 14:00:00 12.2 12 Noroeste 29 Norte 0 -- -- 60
2020-10-26 13:00:00 12 14 Norte 31 Norte 0 -- -- 63
2020-10-26 12:00:00 11.2 13 Norte 28 Norte 0 -- -- 71
2020-10-26 11:00:00 9.9 15 Norte 28 Norte 0 -- -- 79
2020-10-26 10:00:00 9.3 9 Noroeste 24 Noroeste 0 -- -- 83
2020-10-26 09:00:00 8 12 Noroeste 24 Noroeste 0 -- -- 86
2020-10-26 08:00:00 6.9 8 Noroeste 17 Norte 0 -- -- 89
2020-10-26 07:00:00 7.1 7 Noroeste 21 Noroeste 0 -- -- 95
2020-10-26 06:00:00 7.7 6 Noroeste 20 Noroeste 0 -- -- 93
2020-10-26 05:00:00 7.9 8 Noroeste 28 Norte 0 -- -- 94
2020-10-26 04:00:00 8.1 9 Noroeste 24 Noroeste 0 -- -- 92
2020-10-26 03:00:00 8.8 8 Noroeste 25 Oeste 0 -- -- 94
2020-10-26 02:00:00 9.1 6 Noroeste 24 Noroeste 0 -- -- 89
2020-10-26 01:00:00 9.5 12 Noroeste 29 Noroeste 0.2 -- -- 92
2020-10-26 00:00:00 10.7 15 Noroeste 30 Oeste 0.2 -- -- 99
2020-10-25 23:00:00 11.2 6 Sudoeste 29 Oeste 0.2 -- -- 100
2020-10-25 22:00:00 11.4 15 Oeste 34 Oeste 2.6 -- -- 100
2020-10-25 21:00:00 12.5 13 Oeste 30 Sudoeste 7.4 -- -- 100
2020-10-25 20:00:00 12.7 21 Sudoeste 39 Sudoeste 2.8 -- -- 100
2020-10-25 19:00:00 12.7 22 Sudoeste 39 Sudoeste 0 -- -- 99
2020-10-25 18:00:00 13.1 23 Sudoeste 41 Sur 0 -- -- 93
2020-10-25 17:00:00 13.9 21 Sudoeste 41 Sur 0 -- -- 83
2020-10-25 16:00:00 14.2 21 Sudoeste 37 Sudoeste 0 -- -- 79
2020-10-25 15:00:00 13.6 22 Sudoeste 40 Sudoeste 0 -- -- 83
2020-10-25 14:00:00 13.6 24 Sudoeste 37 Sudoeste 0 -- -- 83
2020-10-25 13:00:00 12.5 22 Sudoeste 35 Sudoeste 0 -- -- 87
2020-10-25 12:00:00 12.4 22 Sudoeste 32 Sudoeste 0 -- -- 84
2020-10-25 11:00:00 12 17 Sudoeste 24 Sudoeste 0 -- -- 85
2020-10-25 10:00:00 11.3 9 Sudoeste 16 Sudoeste 0 -- -- 90
2020-10-25 09:00:00 9.7 6 Sudoeste 11 Sudoeste 0 -- -- 96
2020-10-25 08:00:00 7.8 3 Sudoeste 7 Sudoeste 0 -- -- 100
2020-10-25 07:00:00 6.9 0 Calma 5 Nordeste 0 -- -- 100
2020-10-25 06:00:00 8.5 0 Calma 6 Sudoeste 0 -- -- 99
2020-10-25 05:00:00 9 5 Sudoeste 9 Oeste 0 -- -- 97
2020-10-25 04:00:00 9.5 4 Oeste 13 Noroeste 0 -- -- 96
2020-10-25 03:00:00 10 8 Sudoeste 14 Sudoeste 0 -- -- 97
2020-10-25 02:00:00 8.9 3 Sudoeste 6 Sudoeste 0 -- -- 100
2020-10-25 01:00:00 9.6 0 Calma 4 Sur 0 -- -- 100
2020-10-25 00:00:00 10.2 3 Norte 7 Norte 0 -- -- 99